createdAt,value
2023-07-20T00:01:46.564Z,100.00
2023-07-20T00:04:15.496Z,100.00
2023-07-20T00:06:42.074Z,100.00
2023-07-20T00:09:09.061Z,100.00
2023-07-20T00:11:38.850Z,100.00
2023-07-20T00:14:06.372Z,100.00
2023-07-20T00:16:33.097Z,100.00
2023-07-20T00:18:59.807Z,100.00
2023-07-20T00:21:26.727Z,100.00
2023-07-20T00:23:53.381Z,100.00
2023-07-20T00:26:19.957Z,100.00
2023-07-20T00:28:46.571Z,100.00
2023-07-20T00:31:13.236Z,100.00
2023-07-20T00:33:39.872Z,100.00
2023-07-20T00:36:06.571Z,100.00
2023-07-20T00:38:33.170Z,100.00
2023-07-20T00:40:59.726Z,100.00
2023-07-20T00:43:26.273Z,100.00
2023-07-20T00:45:52.893Z,100.00
2023-07-20T00:48:19.716Z,100.00
2023-07-20T00:50:48.268Z,100.00
2023-07-20T00:53:15.285Z,100.00
2023-07-20T00:55:42.056Z,100.00
2023-07-20T00:58:09.451Z,100.00
2023-07-20T01:00:36.115Z,100.00
2023-07-20T01:03:02.718Z,100.00
2023-07-20T01:05:41.029Z,100.00
2023-07-20T01:08:25.257Z,100.00
2023-07-20T01:10:58.423Z,100.00
2023-07-20T01:13:27.852Z,100.00
2023-07-20T01:16:04.071Z,100.00
2023-07-20T01:18:30.699Z,100.00
2023-07-20T01:21:04.536Z,100.00
2023-07-20T01:23:59.414Z,100.00
2023-07-20T01:26:39.008Z,100.00
2023-07-20T01:29:29.018Z,100.00
2023-07-20T01:31:57.080Z,100.00
2023-07-20T01:34:24.480Z,100.00
2023-07-20T01:36:53.431Z,100.00
2023-07-20T01:39:21.862Z,100.00
2023-07-20T01:41:48.719Z,100.00
2023-07-20T01:44:15.345Z,100.00
2023-07-20T01:46:41.884Z,100.00
2023-07-20T01:49:08.408Z,100.00
2023-07-20T01:51:34.886Z,100.00
2023-07-20T01:54:01.811Z,100.00
2023-07-20T01:56:28.293Z,100.00
2023-07-20T01:58:54.906Z,100.00
2023-07-20T02:01:21.437Z,100.00
2023-07-20T02:03:47.982Z,100.00
2023-07-20T02:06:14.455Z,100.00
2023-07-20T02:08:44.090Z,100.00
2023-07-20T02:11:11.123Z,100.00
2023-07-20T02:13:37.758Z,100.00
2023-07-20T02:16:04.777Z,100.00
2023-07-20T02:18:32.580Z,100.00
2023-07-20T02:21:01.542Z,100.00
2023-07-20T02:23:28.244Z,100.00
2023-07-20T02:25:54.832Z,100.00
2023-07-20T02:28:21.485Z,100.00
2023-07-20T02:30:48.449Z,100.00
2023-07-20T02:33:14.971Z,100.00
2023-07-20T02:35:41.796Z,100.00
2023-07-20T02:38:08.291Z,100.00
2023-07-20T02:40:34.842Z,100.00
2023-07-20T02:43:01.465Z,100.00
2023-07-20T02:45:27.980Z,100.00
2023-07-20T02:47:54.610Z,100.00
2023-07-20T02:50:21.149Z,100.00
2023-07-20T02:52:47.616Z,100.00
2023-07-20T02:55:14.126Z,100.00
2023-07-20T02:57:40.690Z,100.00
2023-07-20T03:00:08.987Z,100.00
2023-07-20T03:02:37.266Z,100.00
2023-07-20T03:05:07.044Z,100.00
2023-07-20T03:07:33.756Z,100.00
2023-07-20T03:10:00.299Z,100.00
2023-07-20T03:12:26.842Z,100.00
2023-07-20T03:14:53.785Z,100.00
2023-07-20T03:17:21.887Z,100.00
2023-07-20T03:19:48.436Z,100.00
2023-07-20T03:22:14.937Z,100.00
2023-07-20T03:24:41.447Z,100.00
2023-07-20T03:27:07.979Z,100.00
2023-07-20T03:29:34.596Z,100.00
2023-07-20T03:32:01.484Z,100.00
2023-07-20T03:34:28.017Z,100.00
2023-07-20T03:36:54.517Z,100.00
2023-07-20T03:39:21.080Z,100.00
2023-07-20T03:41:47.654Z,100.00
2023-07-20T03:44:14.162Z,100.00
2023-07-20T03:46:40.943Z,100.00
2023-07-20T03:49:07.524Z,100.00
2023-07-20T03:51:33.999Z,100.00
2023-07-20T03:54:00.724Z,100.00
2023-07-20T03:56:27.620Z,100.00
2023-07-20T03:58:54.249Z,100.00
2023-07-20T04:01:20.806Z,100.00
2023-07-20T04:03:49.976Z,100.00
2023-07-20T04:06:18.633Z,100.00
2023-07-20T04:08:45.936Z,100.00
2023-07-20T04:11:12.425Z,100.00
2023-07-20T04:13:38.953Z,100.00
2023-07-20T04:16:05.749Z,100.00
2023-07-20T04:18:32.269Z,100.00
2023-07-20T04:20:58.749Z,100.00
2023-07-20T04:23:25.298Z,100.00
2023-07-20T04:25:53.035Z,100.00
2023-07-20T04:28:19.530Z,100.00
2023-07-20T04:30:46.198Z,100.00
2023-07-20T04:33:12.885Z,100.00
2023-07-20T04:35:50.089Z,100.00
2023-07-20T04:38:18.660Z,100.00
2023-07-20T04:40:47.029Z,100.00
2023-07-20T04:43:14.494Z,100.00
2023-07-20T04:45:41.029Z,100.00
2023-07-20T04:48:14.441Z,100.00
2023-07-20T04:50:46.655Z,100.00
2023-07-20T04:53:13.816Z,100.00
2023-07-20T04:55:41.076Z,100.00
2023-07-20T04:58:08.130Z,100.00
2023-07-20T05:00:35.267Z,100.00
2023-07-20T05:03:02.583Z,99.78
2023-07-20T05:05:29.337Z,97.58
2023-07-20T05:07:55.923Z,95.14
2023-07-20T05:10:22.464Z,94.55
2023-07-20T05:12:49.012Z,94.27
2023-07-20T05:15:15.792Z,92.36
2023-07-20T05:17:42.494Z,89.28
2023-07-20T05:20:11.337Z,90.25
2023-07-20T05:22:41.363Z,82.38
2023-07-20T05:25:09.431Z,79.68
2023-07-20T05:27:40.588Z,77.89
2023-07-20T05:30:10.987Z,75.34
2023-07-20T05:32:37.616Z,75.55
2023-07-20T05:35:04.533Z,77.22
2023-07-20T05:37:31.355Z,76.77
2023-07-20T05:39:58.593Z,79.99
2023-07-20T05:42:25.095Z,80.16
2023-07-20T05:44:54.052Z,81.51
2023-07-20T05:47:20.685Z,82.37
2023-07-20T05:49:47.296Z,80.45
2023-07-20T05:52:14.581Z,79.11
2023-07-20T05:54:41.071Z,77.37
2023-07-20T05:57:09.061Z,76.68
2023-07-20T05:59:35.651Z,78.67
2023-07-20T06:02:05.708Z,78.72
2023-07-20T06:04:33.685Z,74.71
2023-07-20T06:07:03.829Z,69.57
2023-07-20T06:09:32.973Z,65.22
2023-07-20T06:12:01.104Z,61.06
2023-07-20T06:14:30.019Z,55.47
2023-07-20T06:17:12.184Z,54.01
2023-07-20T06:19:57.806Z,52.56
2023-07-20T06:22:26.382Z,50.13
2023-07-20T06:25:05.779Z,50.43
2023-07-20T06:27:33.080Z,48.81
2023-07-20T06:30:07.826Z,46.64
2023-07-20T06:32:36.290Z,48.96
2023-07-20T06:35:11.156Z,48.45
2023-07-20T06:40:36.972Z,52.84
2023-07-20T06:45:49.192Z,51.29
2023-07-20T06:48:18.784Z,48.68
2023-07-20T06:50:46.564Z,48.04
2023-07-20T06:53:22.228Z,43.10
2023-07-20T06:55:48.983Z,41.26
2023-07-20T06:58:15.677Z,44.32
2023-07-20T07:00:42.194Z,40.93
2023-07-20T07:03:08.762Z,38.76
2023-07-20T07:05:38.842Z,40.54
2023-07-20T07:08:08.647Z,38.69
2023-07-20T07:10:37.077Z,37.58
2023-07-20T07:13:05.783Z,37.96
2023-07-20T07:15:33.342Z,35.17
2023-07-20T07:18:01.409Z,35.56
2023-07-20T07:20:28.902Z,38.62
2023-07-20T07:22:57.005Z,36.94
2023-07-20T07:25:24.151Z,39.95
2023-07-20T07:27:51.265Z,39.12
2023-07-20T07:30:17.965Z,34.75
2023-07-20T07:32:44.652Z,37.87
2023-07-20T07:35:11.264Z,36.25
2023-07-20T07:37:52.203Z,36.42
2023-07-20T07:40:24.331Z,35.95
2023-07-20T07:42:50.853Z,35.25
2023-07-20T07:45:17.909Z,36.93
2023-07-20T07:47:44.703Z,31.35
2023-07-20T07:50:11.719Z,33.13
2023-07-20T07:52:38.461Z,30.96
2023-07-20T07:55:05.704Z,35.93
2023-07-20T07:57:32.187Z,31.82
2023-07-20T07:59:58.668Z,31.40
2023-07-20T08:02:25.167Z,35.47
2023-07-20T08:04:53.595Z,35.05
2023-07-20T08:07:20.323Z,35.53
2023-07-20T08:09:46.960Z,32.13
2023-07-20T08:12:14.624Z,33.07
2023-07-20T08:14:41.246Z,33.88
2023-07-20T08:17:08.004Z,36.56
2023-07-20T08:19:34.959Z,33.30
2023-07-20T08:22:01.612Z,30.86
2023-07-20T08:24:28.420Z,35.09
2023-07-20T08:26:55.191Z,31.16
2023-07-20T08:29:21.894Z,33.53
2023-07-20T08:31:48.741Z,32.62
2023-07-20T08:34:29.669Z,32.70
2023-07-20T08:36:58.646Z,31.78
2023-07-20T08:39:25.704Z,33.74
2023-07-20T08:41:55.817Z,32.81
2023-07-20T08:44:23.782Z,31.35
2023-07-20T08:46:50.841Z,30.79
2023-07-20T08:49:19.418Z,30.99
2023-07-20T08:51:47.841Z,32.12
2023-07-20T08:54:15.551Z,33.41
2023-07-20T08:56:43.813Z,33.41
2023-07-20T08:59:10.448Z,34.71
2023-07-20T09:01:40.124Z,33.31
2023-07-20T09:04:07.311Z,33.61
2023-07-20T09:06:36.122Z,33.79
2023-07-20T09:09:02.753Z,33.46
2023-07-20T09:11:29.968Z,34.87
2023-07-20T09:14:07.519Z,33.44
2023-07-20T09:16:48.058Z,36.78
2023-07-20T09:19:16.379Z,37.79
2023-07-20T09:21:49.351Z,37.09
2023-07-20T09:24:18.340Z,36.15
2023-07-20T09:26:48.578Z,36.61
2023-07-20T09:29:18.915Z,36.15
2023-07-20T09:32:01.750Z,35.76
2023-07-20T09:37:01.833Z,37.63
2023-07-20T09:39:30.076Z,36.42
2023-07-20T09:47:05.500Z,38.88
2023-07-20T09:50:26.283Z,36.62
2023-07-20T09:53:12.909Z,38.63
2023-07-20T09:55:10.306Z,37.39
2023-07-20T09:57:37.334Z,38.06
2023-07-20T10:02:46.877Z,34.74
2023-07-20T10:05:15.621Z,35.07
2023-07-20T10:07:48.899Z,37.79
2023-07-20T10:10:19.740Z,37.04
2023-07-20T10:12:49.354Z,37.57
2023-07-20T10:15:22.460Z,37.76
2023-07-20T10:18:04.935Z,37.26
2023-07-20T10:20:36.716Z,35.88
2023-07-20T10:23:03.699Z,36.21
2023-07-20T10:25:30.620Z,36.75
2023-07-20T10:27:58.346Z,36.89
2023-07-20T10:30:28.229Z,36.12
2023-07-20T10:32:55.062Z,34.77
2023-07-20T10:35:21.894Z,34.61
2023-07-20T10:37:54.970Z,35.68
2023-07-20T10:40:35.708Z,35.62
2023-07-20T10:43:09.388Z,35.20
2023-07-20T10:45:36.852Z,33.84
2023-07-20T10:48:08.092Z,32.01
2023-07-20T10:50:35.681Z,32.82
2023-07-20T10:53:06.581Z,33.52
2023-07-20T10:55:34.037Z,35.68
2023-07-20T10:58:11.127Z,32.89
2023-07-20T11:00:38.238Z,33.54
2023-07-20T11:03:05.824Z,31.93
2023-07-20T11:05:40.084Z,33.82
2023-07-20T11:08:11.185Z,34.90
2023-07-20T11:10:37.924Z,33.97
2023-07-20T11:13:24.726Z,34.07
2023-07-20T11:15:57.390Z,34.68
2023-07-20T11:18:27.047Z,34.27
2023-07-20T11:20:54.645Z,34.98
2023-07-20T11:23:22.054Z,35.04
2023-07-20T11:25:48.873Z,36.08
2023-07-20T11:28:15.437Z,35.45
2023-07-20T11:30:42.185Z,35.38
2023-07-20T11:33:12.397Z,36.23
2023-07-20T11:35:52.111Z,37.38
2023-07-20T11:38:18.909Z,37.34
2023-07-20T11:40:47.233Z,37.05
2023-07-20T11:45:46.394Z,38.54
2023-07-20T11:48:19.109Z,37.26
2023-07-20T11:50:46.175Z,37.06
2023-07-20T11:53:13.246Z,36.25
2023-07-20T11:55:42.090Z,36.03
2023-07-20T11:58:10.427Z,34.54
2023-07-20T12:00:41.113Z,35.23
2023-07-20T12:03:08.668Z,36.74
2023-07-20T12:05:47.674Z,36.45
2023-07-20T12:08:22.566Z,38.12
2023-07-20T12:10:50.054Z,36.04
2023-07-20T12:13:19.388Z,36.13
2023-07-20T12:15:46.199Z,35.31
2023-07-20T12:18:15.234Z,35.17
2023-07-20T12:20:41.890Z,36.29
2023-07-20T12:23:13.250Z,35.71
2023-07-20T12:25:43.856Z,34.36
2023-07-20T12:28:21.236Z,32.89
2023-07-20T12:30:49.668Z,33.83
2023-07-20T12:33:17.453Z,34.22
2023-07-20T12:35:44.941Z,34.24
2023-07-20T12:38:11.974Z,34.10
2023-07-20T12:40:38.590Z,35.12
2023-07-20T12:43:07.535Z,33.82
2023-07-20T12:45:34.396Z,33.57
2023-07-20T12:48:01.050Z,34.25
2023-07-20T12:50:28.469Z,33.50
2023-07-20T12:52:57.964Z,34.63
2023-07-20T12:55:24.684Z,33.53
2023-07-20T12:57:51.472Z,31.40
2023-07-20T13:00:18.399Z,32.39
2023-07-20T13:02:45.037Z,32.42
2023-07-20T13:05:12.066Z,32.80
2023-07-20T13:10:12.103Z,32.80
2023-07-20T13:12:42.709Z,32.52
2023-07-20T13:15:15.979Z,32.74
2023-07-20T13:17:42.916Z,32.80
2023-07-20T13:20:12.178Z,33.43
2023-07-20T13:22:42.275Z,33.15
2023-07-20T13:25:09.646Z,32.56
2023-07-20T13:27:38.952Z,31.02
2023-07-20T13:30:10.350Z,32.32
2023-07-20T13:32:37.910Z,32.08
2023-07-20T13:35:05.427Z,32.19
2023-07-20T13:37:32.216Z,31.38
2023-07-20T13:39:58.678Z,31.05
2023-07-20T13:42:25.223Z,31.35
2023-07-20T13:44:51.849Z,32.08
2023-07-20T13:49:48.455Z,32.04
2023-07-20T13:57:16.053Z,31.58
2023-07-20T13:59:45.399Z,32.00
2023-07-20T14:04:42.733Z,32.02
2023-07-20T14:07:10.523Z,32.75
2023-07-20T14:09:37.164Z,32.33
2023-07-20T14:14:33.588Z,33.78
2023-07-20T14:17:00.128Z,33.28
2023-07-20T14:19:26.667Z,31.99
2023-07-20T14:21:53.141Z,33.12
2023-07-20T14:24:19.946Z,31.90
2023-07-20T14:26:48.696Z,32.03
2023-07-20T14:29:20.401Z,31.93
2023-07-20T14:31:53.380Z,31.20
2023-07-20T14:34:20.471Z,31.72
2023-07-20T14:36:47.227Z,32.31
2023-07-20T14:39:13.946Z,31.75
2023-07-20T14:41:40.468Z,31.85
2023-07-20T14:44:07.179Z,31.42
2023-07-20T14:46:33.659Z,31.05
2023-07-20T14:49:00.195Z,31.09
2023-07-20T14:51:37.615Z,31.41
2023-07-20T14:54:04.582Z,30.65
2023-07-20T14:56:31.027Z,31.36
2023-07-20T14:58:59.167Z,30.06
2023-07-20T15:01:27.447Z,30.28
2023-07-20T15:03:57.603Z,29.66
2023-07-20T15:06:26.458Z,31.19
2023-07-20T15:08:53.383Z,31.01
2023-07-20T15:11:19.862Z,30.59
2023-07-20T15:13:46.370Z,30.53
2023-07-20T15:16:12.885Z,29.76
2023-07-20T15:18:48.017Z,29.65
2023-07-20T15:21:16.105Z,30.17
2023-07-20T15:23:43.470Z,30.38
2023-07-20T15:26:10.088Z,30.42
2023-07-20T15:28:36.721Z,30.76
2023-07-20T15:31:05.005Z,31.51
2023-07-20T15:33:32.317Z,30.88
2023-07-20T15:35:59.215Z,30.70
2023-07-20T15:38:25.774Z,30.80
2023-07-20T15:40:52.431Z,31.34
2023-07-20T15:43:22.098Z,30.64
2023-07-20T15:45:52.422Z,31.00
2023-07-20T15:48:19.705Z,31.21
2023-07-20T15:50:50.927Z,31.65
2023-07-20T15:53:17.646Z,31.50
2023-07-20T15:55:44.513Z,31.05
2023-07-20T15:58:11.173Z,31.93
2023-07-20T16:00:38.835Z,31.44
2023-07-20T16:03:06.537Z,32.77
2023-07-20T16:05:33.207Z,32.55
2023-07-20T16:07:59.688Z,31.92
2023-07-20T16:12:53.942Z,31.36
2023-07-20T16:17:50.054Z,32.55
2023-07-20T16:20:16.701Z,31.98
2023-07-20T16:22:43.244Z,32.25
2023-07-20T16:25:12.079Z,32.07
2023-07-20T16:27:38.596Z,31.56
2023-07-20T16:30:06.088Z,31.30
2023-07-20T16:32:32.618Z,30.94
2023-07-20T16:35:11.640Z,31.79
2023-07-20T16:37:38.496Z,31.83
2023-07-20T16:40:31.998Z,32.27
2023-07-20T16:45:27.453Z,32.65
2023-07-20T16:47:54.564Z,32.36
2023-07-20T16:50:21.431Z,33.30
2023-07-20T16:52:47.952Z,33.32
2023-07-20T16:55:15.479Z,33.68
2023-07-20T16:57:42.022Z,34.49
2023-07-20T17:00:11.864Z,33.58
2023-07-20T17:02:38.995Z,33.90
2023-07-20T17:05:13.496Z,33.57
2023-07-20T17:07:40.677Z,33.99
2023-07-20T17:10:08.327Z,33.51
2023-07-20T17:12:36.354Z,33.85
2023-07-20T17:15:02.880Z,33.97
2023-07-20T17:17:29.430Z,34.63
2023-07-20T17:22:25.383Z,33.86
2023-07-20T17:27:21.275Z,33.91
2023-07-20T17:29:47.840Z,33.81
2023-07-20T17:32:14.438Z,33.63
2023-07-20T17:34:41.381Z,33.99
2023-07-20T17:44:37.317Z,37.01
2023-07-20T17:49:33.514Z,39.24
2023-07-20T17:52:00.112Z,38.31
2023-07-20T17:54:26.612Z,39.25
2023-07-20T17:56:53.189Z,39.31
2023-07-20T17:59:20.365Z,38.84
2023-07-20T18:01:46.858Z,39.94
2023-07-20T18:04:13.891Z,39.22
2023-07-20T18:06:40.469Z,39.41
2023-07-20T18:09:08.297Z,40.22
2023-07-20T18:11:35.116Z,39.72
2023-07-20T18:14:02.151Z,40.28
2023-07-20T18:16:28.806Z,40.15
2023-07-20T18:18:56.364Z,40.83
2023-07-20T18:21:23.919Z,39.93
2023-07-20T18:23:52.351Z,41.00
2023-07-20T18:26:20.092Z,40.27
2023-07-20T18:28:46.654Z,39.95
2023-07-20T18:31:13.204Z,41.31
2023-07-20T18:33:40.168Z,40.07
2023-07-20T18:36:07.681Z,40.53
2023-07-20T18:38:34.884Z,42.30
2023-07-20T18:41:01.432Z,40.99
2023-07-20T18:43:28.220Z,41.09
2023-07-20T18:45:55.500Z,42.55
2023-07-20T18:48:22.261Z,42.08
2023-07-20T18:50:48.986Z,41.79
2023-07-20T18:53:15.469Z,42.38
2023-07-20T18:55:41.969Z,42.81
2023-07-20T18:58:08.552Z,43.04
2023-07-20T19:00:35.049Z,44.81
2023-07-20T19:03:01.728Z,43.91
2023-07-20T19:05:28.265Z,44.83
2023-07-20T19:07:54.941Z,44.42
2023-07-20T19:10:21.434Z,44.86
2023-07-20T19:12:47.929Z,44.54
2023-07-20T19:15:14.690Z,45.54
2023-07-20T19:17:41.724Z,46.88
2023-07-20T19:20:08.965Z,49.34
2023-07-20T19:22:35.456Z,47.94
2023-07-20T19:25:01.926Z,48.75
2023-07-20T19:27:29.814Z,48.82
2023-07-20T19:29:56.492Z,48.87
2023-07-20T19:32:22.966Z,49.66
2023-07-20T19:34:49.450Z,50.84
2023-07-20T19:37:16.496Z,51.59
2023-07-20T19:39:44.650Z,51.31
2023-07-20T19:42:11.553Z,51.18
2023-07-20T19:44:38.199Z,51.80
2023-07-20T19:47:07.495Z,52.39
2023-07-20T19:49:34.029Z,52.35
2023-07-20T19:52:00.553Z,52.39
2023-07-20T19:56:56.800Z,54.07
2023-07-20T19:59:24.617Z,54.81
2023-07-20T20:01:51.346Z,54.22
2023-07-20T20:06:50.449Z,56.10
2023-07-20T20:09:17.579Z,57.20
2023-07-20T20:11:44.928Z,57.35
2023-07-20T20:14:11.509Z,56.82
2023-07-20T20:16:39.082Z,56.93
2023-07-20T20:19:07.068Z,56.46
2023-07-20T20:21:36.219Z,57.86
2023-07-20T20:24:03.508Z,57.07
2023-07-20T20:26:30.490Z,58.33
2023-07-20T20:28:56.968Z,57.47
2023-07-20T20:31:23.474Z,58.48
2023-07-20T20:33:49.984Z,57.82
2023-07-20T20:36:17.296Z,59.14
2023-07-20T20:38:43.773Z,59.19
2023-07-20T20:41:10.275Z,59.38
2023-07-20T20:43:36.835Z,59.25
2023-07-20T20:46:05.921Z,59.90
2023-07-20T20:48:36.673Z,60.08
2023-07-20T20:51:04.066Z,60.84
2023-07-20T20:53:33.424Z,61.12
2023-07-20T20:56:00.690Z,60.72
2023-07-20T20:58:27.396Z,61.04
2023-07-20T21:00:54.099Z,61.42
2023-07-20T21:03:21.029Z,60.67
2023-07-20T21:05:47.539Z,61.22
2023-07-20T21:08:17.574Z,62.90
2023-07-20T21:10:46.904Z,61.65
2023-07-20T21:13:13.769Z,62.27
2023-07-20T21:15:41.878Z,61.84
2023-07-20T21:18:08.842Z,61.83
2023-07-20T21:20:35.813Z,62.92
2023-07-20T21:23:03.124Z,60.85
2023-07-20T21:25:29.688Z,61.59
2023-07-20T21:27:56.144Z,61.25
2023-07-20T21:30:24.390Z,60.96
2023-07-20T21:32:50.988Z,61.31
2023-07-20T21:35:17.702Z,61.30
2023-07-20T21:37:44.189Z,62.30
2023-07-20T21:40:11.033Z,62.12
2023-07-20T21:42:38.394Z,61.42
2023-07-20T21:45:05.436Z,59.65
2023-07-20T21:47:32.054Z,61.81
2023-07-20T21:50:00.509Z,62.34
2023-07-20T21:52:27.158Z,60.39
2023-07-20T21:54:53.875Z,61.15
2023-07-20T21:57:20.560Z,60.37
2023-07-20T21:59:47.228Z,59.91
2023-07-20T22:02:13.869Z,59.87
2023-07-20T22:04:40.570Z,60.08
2023-07-20T22:07:14.739Z,59.12
2023-07-20T22:09:45.711Z,61.86
2023-07-20T22:12:13.599Z,62.31
2023-07-20T22:14:40.897Z,61.90
2023-07-20T22:17:08.231Z,61.77
2023-07-20T22:19:35.724Z,62.09
2023-07-20T22:22:06.479Z,61.47
2023-07-20T22:24:36.074Z,59.13
2023-07-20T22:27:05.101Z,57.77
2023-07-20T22:29:32.088Z,57.31
2023-07-20T22:31:59.453Z,56.75
2023-07-20T22:34:28.174Z,56.27
2023-07-20T22:36:54.976Z,56.22
2023-07-20T22:39:21.561Z,56.18
2023-07-20T22:41:48.166Z,56.27
2023-07-20T22:44:15.685Z,56.56
2023-07-20T22:46:42.511Z,56.51
2023-07-20T22:49:09.212Z,56.18
2023-07-20T22:51:35.853Z,56.34
2023-07-20T22:54:02.435Z,56.65
2023-07-20T22:56:29.536Z,56.72
2023-07-20T22:58:56.061Z,56.24
2023-07-20T23:01:22.664Z,56.51
2023-07-20T23:03:49.619Z,56.27
2023-07-20T23:06:16.405Z,56.41
2023-07-20T23:08:44.211Z,57.44
2023-07-20T23:11:13.158Z,56.46
2023-07-20T23:13:41.376Z,56.38
2023-07-20T23:16:09.431Z,56.01
2023-07-20T23:18:36.892Z,57.33
2023-07-20T23:21:05.078Z,56.73
2023-07-20T23:23:32.925Z,56.48
2023-07-20T23:25:59.439Z,56.25
2023-07-20T23:28:26.000Z,57.39
2023-07-20T23:30:52.551Z,56.95
2023-07-20T23:33:23.084Z,57.92
2023-07-20T23:35:50.114Z,57.18
2023-07-20T23:38:17.576Z,57.39
2023-07-20T23:40:44.203Z,56.96
2023-07-20T23:43:10.655Z,58.14
2023-07-20T23:45:38.032Z,57.67
2023-07-20T23:48:09.761Z,57.54
2023-07-20T23:50:37.798Z,58.21
2023-07-20T23:53:04.567Z,58.36
2023-07-20T23:55:31.097Z,59.50
2023-07-20T23:57:58.393Z,59.35
